Accueil
METAR-TAF:

METAR-TAF

Aéroports :

Barkston Heath, Angleterre

latitude: 52-58N, longitude: 000-34W, altitude: 112 m

Observation

Le bulletin a été fait il y a 39 minutes, à 16:20 UTC
Vent 2 kt de ouest
Température
Pression

METAR: EGYE 011620Z AUTO 26002KT //// VV/// ///// Q////

Heure: 16:59 (16:59 UTC)

Prévision

Le bulletin a été fait il y a 3 heures et 54 minutes, à 13:05 UTC
Prévision valable du 01 à 13 UTC au 01 à 19 UTC
Vent 5 kt de direction variable
Visibilité: 3000 m
Nuages fragmentés à une hauteur de 300 ft
brume
Temporairement
du 01 à 13 UTC au 01 à 16 UTC
Visibilité: 4000 m
Nuages fragmentés à une hauteur de 500 ft
Evoluant progressivement
du 01 à 16 UTC au 01 à 19 UTC
Visibilité: 2000 m

TAF: EGYE 011305Z 0113/0119 VRB05KT 3000 BR BKN003 TEMPO 0113/0116 4000 BKN005 BECMG 0116/0119 2000

Observations et prévisions météorologiques de plus de 4000 aéroports (messages METAR et TAF).

Les stations disponibles sont représentées par des disques jaunes et rouges sur la carte.

Passer la souris dessus pour voir le nom de la station.

Cliquer dessus pour voir les observations et prévisions météorologiques.

Pour changer de carte: cliquez sur les boutons verts avec une croix noire pour zoomer, sur le bouton vert avec un tiret pour effectuer un zoom arrière, ou sur les flèches vertes pour les cartes adjacentes.


METAR-TAF: